createdAt,value
2016-10-01T00:04:55.244Z,0
2016-10-01T00:09:51.909Z,0
2016-10-01T00:14:49.132Z,0
2016-10-01T00:19:45.945Z,0
2016-10-01T00:24:42.602Z,0
2016-10-01T00:29:38.965Z,0
2016-10-01T00:34:36.040Z,0
2016-10-01T00:39:32.603Z,0
2016-10-01T00:44:28.992Z,0
2016-10-01T00:49:25.808Z,0
2016-10-01T00:54:23.398Z,0
2016-10-01T00:59:19.952Z,0
2016-10-01T01:04:17.372Z,0
2016-10-01T01:09:14.381Z,0
2016-10-01T01:14:10.862Z,0
2016-10-01T01:19:08.383Z,0
2016-10-01T01:24:04.606Z,0
2016-10-01T01:29:02.559Z,0
2016-10-01T01:33:59.307Z,0
2016-10-01T01:38:55.705Z,0
2016-10-01T01:43:52.309Z,0
2016-10-01T01:48:49.231Z,0
2016-10-01T01:53:45.623Z,0
2016-10-01T01:58:41.837Z,0
2016-10-01T02:03:38.722Z,0
2016-10-01T02:08:35.148Z,0
2016-10-01T02:13:31.304Z,0
2016-10-01T02:18:27.759Z,0
2016-10-01T02:23:24.740Z,0
2016-10-01T02:28:21.281Z,0
2016-10-01T02:33:17.702Z,0
2016-10-01T02:38:14.656Z,0
2016-10-01T02:43:15.657Z,0
2016-10-01T02:48:13.629Z,0
2016-10-01T02:53:09.879Z,0
2016-10-01T02:58:06.718Z,0
2016-10-01T03:03:04.132Z,0
2016-10-01T03:08:01.018Z,0
2016-10-01T03:12:57.219Z,0
2016-10-01T03:17:53.826Z,0
2016-10-01T03:22:50.551Z,0
2016-10-01T03:27:48.803Z,0
2016-10-01T03:32:45.087Z,0
2016-10-01T03:37:43.003Z,0
2016-10-01T03:42:39.171Z,0
2016-10-01T03:47:36.032Z,0
2016-10-01T03:52:32.605Z,0
2016-10-01T03:57:30.454Z,0
2016-10-01T04:02:26.649Z,0
2016-10-01T04:07:23.259Z,0
2016-10-01T04:12:19.608Z,0
2016-10-01T04:17:17.088Z,0
2016-10-01T04:22:13.625Z,0
2016-10-01T04:27:16.331Z,0
2016-10-01T04:32:11.827Z,0
2016-10-01T04:37:09.882Z,0
2016-10-01T04:42:05.819Z,0
2016-10-01T04:47:02.305Z,0
2016-10-01T04:51:59.354Z,0
2016-10-01T04:56:56.178Z,0
2016-10-01T05:01:52.716Z,0
2016-10-01T05:06:49.448Z,0
2016-10-01T05:11:46.618Z,0
2016-10-01T05:16:43.183Z,0
2016-10-01T05:21:40.429Z,0
2016-10-01T05:26:37.254Z,0
2016-10-01T05:31:34.082Z,0
2016-10-01T05:36:30.740Z,0
2016-10-01T05:41:27.535Z,0
2016-10-01T05:46:24.368Z,0
2016-10-01T05:51:21.177Z,0
2016-10-01T05:56:17.987Z,0
2016-10-01T06:01:14.542Z,5
2016-10-01T06:06:10.834Z,5
2016-10-01T06:11:07.758Z,5
2016-10-01T06:16:04.455Z,5
2016-10-01T06:21:01.335Z,10
2016-10-01T06:25:58.093Z,15
2016-10-01T06:30:56.952Z,20
2016-10-01T06:35:53.637Z,20
2016-10-01T06:40:50.417Z,25
2016-10-01T06:45:47.303Z,35
2016-10-01T06:50:43.793Z,45
2016-10-01T06:55:40.507Z,40
2016-10-01T07:00:37.263Z,45
2016-10-01T07:05:34.616Z,45
2016-10-01T07:15:31.522Z,55
2016-10-01T07:20:28.076Z,70
2016-10-01T07:25:24.679Z,90
2016-10-01T07:30:21.491Z,125
2016-10-01T07:35:19.124Z,125
2016-10-01T07:40:15.809Z,135
2016-10-01T07:45:12.606Z,135
2016-10-01T07:50:09.206Z,125
2016-10-01T07:55:05.625Z,115
2016-10-01T08:00:02.653Z,95
2016-10-01T08:04:59.192Z,125
2016-10-01T08:09:56.273Z,135
2016-10-01T08:14:53.127Z,130
2016-10-01T08:19:50.908Z,125
2016-10-01T08:24:47.325Z,115
2016-10-01T08:29:43.947Z,95
2016-10-01T08:34:40.625Z,110
2016-10-01T08:39:37.199Z,90
2016-10-01T08:44:34.982Z,85
2016-10-01T08:49:31.126Z,70
2016-10-01T08:54:27.693Z,90
2016-10-01T08:59:24.592Z,75
2016-10-01T09:04:21.070Z,90
2016-10-01T09:09:17.798Z,110
2016-10-01T09:14:14.635Z,100
2016-10-01T09:19:11.400Z,95
2016-10-01T09:24:08.255Z,140
2016-10-01T09:29:05.555Z,180
2016-10-01T09:34:02.182Z,230
2016-10-01T09:39:00.076Z,195
2016-10-01T09:43:56.510Z,220
2016-10-01T09:48:53.493Z,220
2016-10-01T09:53:50.120Z,185
2016-10-01T09:58:47.007Z,170
2016-10-01T10:03:43.605Z,165
2016-10-01T10:08:41.956Z,260
2016-10-01T10:13:38.714Z,310
2016-10-01T10:18:38.332Z,250
2016-10-01T10:23:35.179Z,220
2016-10-01T10:28:31.279Z,240
2016-10-01T10:33:29.151Z,240
2016-10-01T10:38:25.922Z,260
2016-10-01T10:43:22.129Z,290
2016-10-01T10:48:20.401Z,335
2016-10-01T10:53:17.190Z,265
2016-10-01T10:58:14.040Z,365
2016-10-01T11:03:11.780Z,225
2016-10-01T11:08:07.762Z,185
2016-10-01T11:13:04.606Z,255
2016-10-01T11:18:01.330Z,340
2016-10-01T11:23:00.802Z,600
2016-10-01T11:27:57.266Z,305
2016-10-01T11:32:53.040Z,315
2016-10-01T11:37:51.156Z,325
2016-10-01T11:42:48.031Z,300
2016-10-01T11:47:45.193Z,705
2016-10-01T11:52:40.925Z,240
2016-10-01T11:57:37.070Z,225
2016-10-01T12:02:32.780Z,155
2016-10-01T12:07:28.567Z,185
2016-10-01T12:12:25.548Z,155
2016-10-01T12:17:23.005Z,180
2016-10-01T12:22:19.322Z,195
2016-10-01T12:27:17.017Z,185
2016-10-01T12:32:13.458Z,175
2016-10-01T12:37:10.231Z,200
2016-10-01T12:42:06.736Z,190
2016-10-01T12:47:03.528Z,240
2016-10-01T12:52:00.154Z,210
2016-10-01T13:02:03.254Z,195
2016-10-01T13:07:00.032Z,245
2016-10-01T13:11:56.920Z,205
2016-10-01T13:16:53.341Z,200
2016-10-01T13:21:49.480Z,125
2016-10-01T13:26:45.953Z,100
2016-10-01T13:31:42.335Z,105
2016-10-01T13:36:39.155Z,120
2016-10-01T13:41:35.868Z,90
2016-10-01T13:46:32.947Z,85
2016-10-01T13:51:29.269Z,105
2016-10-01T13:56:26.150Z,115
2016-10-01T14:01:22.876Z,140
2016-10-01T14:06:19.543Z,110
2016-10-01T14:11:16.201Z,85
2016-10-01T14:16:12.910Z,65
2016-10-01T14:21:09.420Z,70
2016-10-01T14:26:05.947Z,105
2016-10-01T14:31:02.397Z,55
2016-10-01T14:35:58.970Z,30
2016-10-01T14:40:56.474Z,35
2016-10-01T14:45:52.485Z,55
2016-10-01T14:50:49.128Z,80
2016-10-01T14:55:45.842Z,70
2016-10-01T15:00:42.565Z,75
2016-10-01T15:05:41.070Z,115
2016-10-01T15:10:37.778Z,115
2016-10-01T15:15:35.010Z,145
2016-10-01T15:20:32.146Z,170
2016-10-01T15:25:29.453Z,130
2016-10-01T15:30:28.009Z,110
2016-10-01T15:35:24.195Z,95
2016-10-01T15:40:20.619Z,90
2016-10-01T15:45:18.348Z,85
2016-10-01T15:50:14.934Z,75
2016-10-01T15:55:12.316Z,60
2016-10-01T16:00:08.462Z,60
2016-10-01T16:05:05.189Z,50
2016-10-01T16:10:01.936Z,55
2016-10-01T16:14:58.922Z,50
2016-10-01T16:19:55.484Z,40
2016-10-01T16:24:52.044Z,35
2016-10-01T16:29:48.563Z,25
2016-10-01T16:34:45.035Z,20
2016-10-01T16:39:41.540Z,15
2016-10-01T16:44:38.168Z,15
2016-10-01T16:49:35.257Z,10
2016-10-01T16:54:31.713Z,5
2016-10-01T16:59:27.939Z,5
2016-10-01T17:04:24.722Z,5
2016-10-01T17:09:21.574Z,0
2016-10-01T17:14:17.956Z,0
2016-10-01T17:19:14.667Z,0
2016-10-01T17:24:11.515Z,0
2016-10-01T17:29:08.175Z,0
2016-10-01T17:34:06.081Z,0
2016-10-01T17:39:02.225Z,0
2016-10-01T17:43:58.899Z,0
2016-10-01T17:48:55.366Z,0
2016-10-01T17:53:51.873Z,0
2016-10-01T18:03:44.884Z,0
2016-10-01T18:08:42.543Z,0
2016-10-01T18:13:38.848Z,0
2016-10-01T18:18:35.376Z,0
2016-10-01T18:23:31.931Z,0
2016-10-01T18:28:28.485Z,0
2016-10-01T18:33:25.758Z,0
2016-10-01T18:38:22.187Z,0
2016-10-01T18:43:18.712Z,0
2016-10-01T18:48:15.341Z,0
2016-10-01T18:53:12.226Z,0
2016-10-01T18:58:08.707Z,0
2016-10-01T19:03:05.007Z,0
2016-10-01T19:08:01.754Z,0
2016-10-01T19:12:58.932Z,0
2016-10-01T19:17:55.453Z,0
2016-10-01T19:22:51.897Z,0
2016-10-01T19:27:48.798Z,0
2016-10-01T19:32:44.877Z,0
2016-10-01T19:37:41.452Z,0
2016-10-01T19:42:37.972Z,0
2016-10-01T19:47:34.572Z,0
2016-10-01T19:52:31.188Z,0
2016-10-01T19:57:27.762Z,0
2016-10-01T20:02:24.667Z,0
2016-10-01T20:07:21.384Z,0
2016-10-01T20:12:17.942Z,0
2016-10-01T20:17:14.427Z,0
2016-10-01T20:22:11.536Z,0
2016-10-01T20:27:08.321Z,0
2016-10-01T20:32:04.839Z,0
2016-10-01T20:37:01.499Z,0
2016-10-01T20:41:58.345Z,0
2016-10-01T20:46:55.474Z,0
2016-10-01T20:51:52.560Z,0
2016-10-01T20:56:49.015Z,0
2016-10-01T21:01:45.303Z,0
2016-10-01T21:06:41.843Z,0
2016-10-01T21:11:38.157Z,0
2016-10-01T21:16:34.843Z,0
2016-10-01T21:21:31.184Z,0
2016-10-01T21:26:27.742Z,0
2016-10-01T21:31:24.284Z,0
2016-10-01T21:36:20.772Z,0
2016-10-01T21:41:18.073Z,0
2016-10-01T21:46:14.909Z,0
2016-10-01T21:51:11.042Z,0
2016-10-01T21:56:07.418Z,0
2016-10-01T22:01:04.085Z,0
2016-10-01T22:06:00.580Z,0
2016-10-01T22:10:57.446Z,0
2016-10-01T22:15:53.934Z,0
2016-10-01T22:20:50.519Z,0
2016-10-01T22:25:46.814Z,0
2016-10-01T22:30:43.277Z,0
2016-10-01T22:35:40.121Z,0
2016-10-01T22:40:37.946Z,0
2016-10-01T22:45:34.947Z,0
2016-10-01T22:50:31.500Z,0
2016-10-01T22:55:28.162Z,0
2016-10-01T23:00:24.811Z,0
2016-10-01T23:05:21.735Z,0
2016-10-01T23:10:18.357Z,0
2016-10-01T23:15:15.016Z,0
2016-10-01T23:20:11.381Z,0
2016-10-01T23:25:08.066Z,0
2016-10-01T23:30:04.727Z,0
2016-10-01T23:35:01.245Z,0
2016-10-01T23:39:57.877Z,0
2016-10-01T23:44:54.566Z,0
2016-10-01T23:49:52.227Z,0
2016-10-01T23:54:48.889Z,0
2016-10-01T23:59:46.770Z,0
